Latest Weather Observations for Warra

IDT60801

Issued at 4:32 pm EST Sunday 24 July 2016 (issued every 30 minutes, with the page automatically refreshed every 10 minutes)

About weather observations | Map of weather stations | Latest weather observations for TAS | Other Formats
Station Details ID: 097024 Name: WARRA Lat: -43.06 Lon: 146.70 Height: 495.0 m
Data from the previous 72 hours. | See also: Recent months at Warra
Date/Time
EST
Temp
°C
App
Temp
°C
Dew
Point
°C
Rel
Hum
%
Delta-T
°C
Wind Press
QNH
hPa
Press
MSL
hPa
Rain since
9am
mm
Dir  Spd
km/h
Gust
km/h
Spd
kts
Gust
kts
24/04:30pm 2.8 -1.4 1.9 94 0.4 NW 13 17 7 9 - - 18.6
24/04:00pm 3.3 0.3 2.3 93 0.4 WNW 7 11 4 6 - - 18.2
24/03:30pm 3.3 -0.1 2.1 92 0.5 NNW 9 13 5 7 - - 17.4
24/03:00pm 3.5 -0.3 2.0 90 0.6 NNW 11 19 6 10 - - 17.0
24/02:30pm 3.7 0.3 1.9 88 0.7 NW 9 19 5 10 - - 15.4
24/02:00pm 3.4 -0.8 1.9 90 0.6 NW 13 20 7 11 - - 13.2
24/01:30pm 3.3 -0.4 2.3 93 0.4 NNW 11 17 6 9 - - 10.6
24/01:00pm 3.6 0.3 2.3 91 0.5 NNW 9 13 5 7 - - 8.0
24/12:30pm 3.0 -0.4 1.8 92 0.5 NNW 9 13 5 7 - - 5.2
24/12:00pm 2.8 -1.0 1.6 92 0.5 NNW 11 17 6 9 - - 3.4
24/11:30am 2.5 -1.0 1.5 93 0.4 NNW 9 17 5 9 - - 2.2
24/11:00am 2.5 -0.4 1.3 92 0.5 SW 6 11 3 6 - - 1.2
24/10:30am 2.5 -1.0 1.0 90 0.6 NW 9 13 5 7 - - 0.0
24/10:00am 2.2 -1.7 1.0 92 0.5 W 11 24 6 13 - - 0.0
24/09:30am 1.1 -3.6 1.0 99 0.0 NW 15 24 8 13 - - 0.0
24/09:00am 1.3 -3.0 1.2 99 0.0 NNW 13 19 7 10 - - 2.6
24/08:30am 0.9 -3.1 0.8 99 0.0 NNW 11 20 6 11 - - 2.6
24/08:00am 1.0 -2.6 0.9 99 0.0 WNW 9 19 5 10 - - 2.6
24/07:30am 0.4 -2.9 0.4 100 0.0 N 7 13 4 7 - - 2.6
24/07:00am 0.3 -3.7 0.2 99 0.0 N 11 19 6 10 - - 2.6
24/06:30am 1.2 -2.8 0.6 96 0.2 SW 11 26 6 14 - - 2.6
24/06:00am 1.0 -2.6 0.3 95 0.3 WNW 9 20 5 11 - - 2.6
24/05:30am 1.1 -2.8 1.0 99 0.0 WNW 11 20 6 11 - - 2.6
24/05:00am 1.0 -4.1 0.9 99 0.0 W 17 28 9 15 - - 2.6
24/04:30am 1.2 -4.0 0.0 92 0.5 W 17 35 9 19 - - 2.6
24/04:00am 1.1 -3.7 0.1 93 0.4 W 15 33 8 18 - - 2.6
24/03:30am 1.2 -3.6 0.0 92 0.5 WNW 15 28 8 15 - - 2.6
24/03:00am 1.1 -5.8 0.4 95 0.3 W 26 43 14 23 - - 2.6
24/02:30am 1.0 -2.7 0.0 93 0.4 W 9 24 5 13 - - 2.6
24/02:00am 0.8 -3.3 -0.2 93 0.4 WNW 11 22 6 12 - - 2.6
24/01:30am 1.0 -4.4 -1.4 84 0.9 WNW 17 33 9 18 - - 2.6
24/01:00am 0.8 -4.6 -1.4 85 0.8 WNW 17 41 9 22 - - 2.6
24/12:30am 0.7 -6.4 -1.2 87 0.7 W 26 46 14 25 - - 2.6
24/12:00am 0.6 -5.2 -1.8 84 0.9 W 19 35 10 19 - - 2.6
 
Date/Time
EST
Temp
°C
App
Temp
°C
Dew
Point
°C
Rel
Hum
%
Delta-T
°C
Wind Press
QNH
hPa
Press
MSL
hPa
Rain since
9am
mm
Dir  Spd
km/h
Gust
km/h
Spd
kts
Gust
kts
23/11:30pm 0.5 -5.5 -1.4 87 0.7 W 20 56 11 30 - - 2.6
23/11:00pm 0.5 -5.4 -2.4 81 1.1 W 19 33 10 18 - - 2.6
23/10:30pm -0.2 -5.2 -1.3 92 0.4 W 15 30 8 16 - - 2.6
23/10:00pm -1.0 -4.5 -1.6 96 0.2 W 7 13 4 7 - - 2.6
23/09:30pm -0.6 -6.9 -0.9 98 0.1 WSW 22 39 12 21 - - 2.6
23/09:00pm -0.8 -4.8 -2.4 89 0.5 WNW 9 15 5 8 - - 2.6
23/08:30pm -0.2 -5.4 -2.4 85 0.8 WSW 15 32 8 17 - - 2.6
23/08:00pm -0.5 -6.0 -2.4 87 0.6 WSW 17 28 9 15 - - 2.6
23/07:30pm -0.7 -6.4 -0.8 99 0.0 WSW 19 32 10 17 - - 2.6
23/07:00pm -0.5 -6.7 -0.6 99 0.0 WSW 22 37 12 20 - - 2.6
23/06:30pm -0.2 -4.8 -0.8 96 0.2 WSW 13 28 7 15 - - 2.6
23/06:00pm -0.7 -6.4 -0.8 99 0.0 W 19 35 10 19 - - 2.6
23/05:30pm 0.1 -5.8 -1.0 92 0.4 WSW 20 39 11 21 - - 2.6
23/05:00pm -0.1 -6.8 -1.1 93 0.4 WSW 24 46 13 25 - - 2.6
23/04:30pm -0.1 -5.8 -0.4 98 0.1 WSW 19 39 10 21 - - 2.6
23/04:00pm -0.3 -5.2 -0.4 99 0.0 WSW 15 32 8 17 - - 2.6
23/03:30pm -0.1 -4.6 -0.4 98 0.1 WSW 13 22 7 12 - - 2.6
23/03:00pm 0.0 -5.3 -0.7 95 0.3 WSW 17 39 9 21 - - 2.4
23/02:30pm 0.3 -5.4 -0.5 94 0.3 W 19 35 10 19 - - 2.2
23/02:00pm 0.4 -6.6 -0.7 92 0.4 W 26 44 14 24 - - 1.8
23/01:30pm 0.2 -6.1 -0.8 93 0.4 W 22 41 12 22 - - 1.8
23/01:18pm 0.2 -6.5 -1.1 91 0.5 WSW 24 50 13 27 - - 1.8
23/01:00pm 0.9 -4.9 -1.2 86 0.8 W 19 35 10 19 - - 1.6
23/12:30pm 0.9 -4.9 -1.2 86 0.8 W 19 30 10 16 - - 0.8
23/12:00pm 0.5 -5.4 -1.1 89 0.6 W 20 35 11 19 - - 0.4
23/11:30am 0.2 -5.5 -0.5 95 0.3 W 19 41 10 22 - - 0.4
23/11:00am -0.2 -5.5 -0.3 99 0.0 W 17 26 9 14 - - 0.2
23/10:30am 0.3 -4.3 -0.7 93 0.4 WNW 13 20 7 11 - - 0.2
23/10:00am 0.7 -4.5 0.3 97 0.2 WSW 17 28 9 15 - - 0.0
23/09:30am -0.5 -6.2 -0.6 99 0.0 SW 19 35 10 19 - - 0.0
23/09:00am 0.0 -5.2 -0.1 99 0.0 SW 17 28 9 15 - - 23.6
23/08:30am -0.3 -5.2 -0.3 100 0.0 SW 15 26 8 14 - - 23.6
23/08:00am -0.3 -6.0 -0.4 99 0.0 WNW 19 32 10 17 - - 23.6
23/07:30am -0.1 -4.9 -0.1 100 0.0 WSW 15 28 8 15 - - 23.6
23/07:00am -0.1 -5.3 -0.1 100 0.0 W 17 30 9 16 - - 23.4
23/06:30am 0.1 -4.7 0.1 100 0.0 W 15 28 8 15 - - 23.4
23/06:00am 0.5 -4.7 0.4 99 0.0 W 17 26 9 14 - - 23.4
23/05:30am 0.4 -5.1 0.4 100 0.0 WNW 19 35 10 19 - - 23.2
23/05:00am 0.5 -5.0 0.5 100 0.0 WNW 19 35 10 19 - - 23.0
23/04:30am 0.7 -4.8 0.6 99 0.0 W 19 37 10 20 - - 23.0
23/04:00am 0.7 -2.5 0.6 99 0.0 W 7 15 4 8 - - 22.6
23/03:30am 1.0 -4.5 0.9 99 0.0 NW 19 32 10 17 - - 22.0
23/03:00am 2.0 -3.3 1.9 99 0.0 WNW 19 33 10 18 - - 21.0
23/02:30am 0.8 -2.8 0.8 100 0.0 NW 9 11 5 6 - - 20.4
23/02:00am 0.7 -4.0 0.6 99 0.0 NW 15 28 8 15 - - 20.0
23/01:30am 1.7 -3.3 1.3 97 0.2 NW 17 28 9 15 - - 18.6
23/01:00am 2.4 -2.0 0.1 85 0.9 NNW 13 24 7 13 - - 18.4
23/12:30am 2.7 -3.1 -0.4 80 1.2 WNW 20 30 11 16 - - 18.4
23/12:00am 2.6 -3.2 0.0 83 1.0 W 20 30 11 16 - - 18.4
 
Date/Time
EST
Temp
°C
App
Temp
°C
Dew
Point
°C
Rel
Hum
%
Delta-T
°C
Wind Press
QNH
hPa
Press
MSL
hPa
Rain since
9am
mm
Dir  Spd
km/h
Gust
km/h
Spd
kts
Gust
kts
22/11:30pm 2.6 -3.2 -1.4 75 1.5 W 19 32 10 17 - - 18.4
22/11:00pm 2.4 -3.4 0.0 84 0.9 WNW 20 35 11 19 - - 18.4
22/10:30pm 1.9 -3.6 0.7 92 0.5 NW 19 28 10 15 - - 18.4
22/10:00pm 2.7 -3.1 -0.1 82 1.1 WNW 20 32 11 17 - - 18.4
22/09:30pm 2.5 -3.1 0.1 84 0.9 NW 19 28 10 15 - - 18.4
22/09:00pm 2.6 -3.0 -0.2 82 1.1 WNW 19 35 10 19 - - 18.4
22/08:30pm 2.9 -2.7 1.3 89 0.6 WNW 20 35 11 19 - - 18.4
22/08:00pm 2.9 -1.1 2.6 98 0.1 W 13 32 7 17 - - 18.4
22/07:30pm 2.9 -1.5 2.5 97 0.2 W 15 32 8 17 - - 18.4
22/07:00pm 3.5 -3.0 2.6 94 0.4 W 26 50 14 27 - - 18.0
22/06:36pm 3.5 -3.3 3.1 97 0.2 W 28 48 15 26 - - 18.0
22/06:30pm 3.7 -2.7 3.0 95 0.3 W 26 46 14 25 - - 17.8
22/06:00pm 3.5 -2.9 3.2 98 0.1 W 26 52 14 28 - - 17.4
22/05:34pm 4.0 -2.7 3.6 97 0.2 W 28 50 15 27 - - 17.0
22/05:30pm 4.0 -2.3 3.7 98 0.1 W 26 52 14 28 - - 17.0
22/05:17pm 4.2 -2.4 4.1 99 0.0 W 28 65 15 35 - - 17.0
22/05:00pm 3.9 -1.3 3.8 99 0.0 WNW 20 44 11 24 - - 16.8
22/04:30pm 4.1 -1.8 3.7 97 0.2 W 24 57 13 31 - - 15.6
22/04:02pm 5.2 -1.3 4.9 98 0.1 WNW 28 50 15 27 - - 12.4
22/04:00pm 5.2 -0.8 5.1 99 0.0 WNW 26 50 14 27 - - 12.4
22/03:30pm 5.4 -0.3 5.1 98 0.1 W 24 43 13 23 - - 11.2
22/03:10pm 5.9 -0.2 5.0 94 0.4 W 26 52 14 28 - - 10.6
22/03:00pm 5.9 1.0 5.3 96 0.3 WNW 20 43 11 23 - - 10.2
22/02:30pm 6.6 0.3 5.9 95 0.3 WNW 28 54 15 29 - - 9.2
22/02:17pm 6.6 0.8 6.3 98 0.1 WNW 26 52 14 28 - - 9.2
22/02:00pm 6.4 2.7 6.3 99 0.0 NW 15 26 8 14 - - 8.4
22/01:30pm 6.3 1.6 6.2 99 0.0 NW 20 35 11 19 - - 8.2
22/01:00pm 6.2 0.7 5.9 98 0.1 NW 24 46 13 25 - - 6.0
22/12:30pm 6.9 2.2 6.2 95 0.3 NNW 20 37 11 20 - - 3.0
22/12:00pm 8.0 1.9 4.6 79 1.5 NW 26 41 14 22 - - 1.0
22/11:30am 9.5 5.7 7.6 88 0.9 NNW 17 39 9 21 - - 1.0
22/11:00am 8.9 4.3 6.7 86 1.1 NW 20 33 11 18 - - 1.0
22/10:30am 8.6 3.5 6.1 84 1.2 NW 22 39 12 21 - - 0.4
22/10:00am 8.9 3.0 6.0 82 1.4 NW 26 50 14 27 - - 0.4
22/09:31am 8.1 1.9 6.2 88 0.9 NW 28 46 15 25 - - 0.2
22/09:30am 8.2 2.4 6.3 88 0.9 NW 26 46 14 25 - - 0.2
22/09:00am 7.9 1.0 6.4 90 0.7 WNW 32 70 17 38 - - 15.6
22/08:51am 8.2 1.3 6.3 88 0.9 WNW 32 70 17 38 - - 15.6
22/08:30am 9.4 3.2 6.3 81 1.5 WNW 28 48 15 26 - - 15.2
22/08:00am 9.4 2.5 6.5 82 1.4 WNW 32 61 17 33 - - 15.2
22/07:30am 9.6 2.8 7.5 87 1.0 WNW 33 59 18 32 - - 15.2
22/07:00am 9.8 4.2 8.9 94 0.5 WNW 28 56 15 30 - - 15.2
22/06:49am 10.1 3.9 9.5 96 0.3 NW 32 70 17 38 - - 15.2
22/06:39am 10.0 4.7 9.9 99 0.1 NW 28 48 15 26 - - 14.8
22/06:30am 9.9 6.1 9.9 100 0.0 NW 20 35 11 19 - - 14.8
22/06:00am 10.6 5.1 10.4 99 0.1 WNW 30 57 16 31 - - 13.2
22/05:52am 10.5 5.4 10.5 100 0.0 NW 28 50 15 27 - - 13.0
22/05:30am 9.1 5.3 9.1 100 0.0 NNW 19 26 10 14 - - 11.6
22/05:00am 8.9 5.1 8.9 100 0.0 NNW 19 46 10 25 - - 10.8
22/04:30am 8.8 4.9 8.8 100 0.0 NW 19 35 10 19 - - 9.8
22/04:00am 8.5 4.0 8.5 100 0.0 NNW 22 63 12 34 - - 7.4
22/03:30am 8.2 3.6 8.1 99 0.0 NNW 22 39 12 21 - - 5.4
22/03:03am 8.4 2.3 8.1 98 0.1 NNW 30 48 16 26 - - 3.2
22/03:00am 8.3 1.8 8.2 99 0.0 NNW 32 48 17 26 - - 3.0
22/02:53am 8.4 2.3 8.3 99 0.0 NNW 30 48 16 26 - - 2.8
22/02:30am 8.1 2.7 8.0 99 0.0 NNW 26 43 14 23 - - 1.8
22/02:00am 8.0 2.5 7.7 98 0.1 NNW 26 46 14 25 - - 1.0
22/01:56am 8.0 2.1 7.7 98 0.1 NNW 28 46 15 25 - - 1.0
22/01:30am 7.4 3.9 7.3 99 0.0 NNW 15 28 8 15 - - 0.6
22/01:00am 7.7 5.1 6.3 91 0.7 NNW 9 15 5 8 - - 0.2
22/12:30am 7.6 4.8 5.2 85 1.1 NE 9 13 5 7 - - 0.0
22/12:00am 7.5 4.8 5.5 87 0.9 NNW 9 13 5 7 - - 0.0
 
Date/Time
EST
Temp
°C
App
Temp
°C
Dew
Point
°C
Rel
Hum
%
Delta-T
°C
Wind Press
QNH
hPa
Press
MSL
hPa
Rain since
9am
mm
Dir  Spd
km/h
Gust
km/h
Spd
kts
Gust
kts
21/11:30pm 7.0 3.8 5.2 88 0.8 NNW 11 17 6 9 - - 0.0
21/11:00pm 7.4 3.9 5.5 88 0.9 NNW 13 20 7 11 - - 0.0
21/10:30pm 7.3 3.8 5.4 88 0.9 NNW 13 20 7 11 - - 0.0
21/10:00pm 7.1 3.9 5.3 88 0.8 NW 11 20 6 11 - - 0.0
21/09:30pm 7.3 3.4 5.3 87 0.9 NW 15 24 8 13 - - 0.0
21/09:00pm 6.8 2.8 5.1 89 0.8 NW 15 20 8 11 - - 0.0
21/08:30pm 7.1 2.7 4.9 86 1.0 NNW 17 28 9 15 - - 0.0
21/08:00pm 7.6 3.2 4.9 83 1.2 NNW 17 26 9 14 - - 0.0
21/07:30pm 7.3 4.0 4.4 82 1.3 NW 11 20 6 11 - - 0.0
21/07:00pm 6.9 3.1 4.0 82 1.3 NW 13 20 7 11 - - 0.0
21/06:30pm 7.1 3.3 4.1 81 1.3 NNW 13 20 7 11 - - 0.0
21/06:00pm 7.6 3.2 4.6 81 1.4 NNW 17 30 9 16 - - 0.0
21/05:30pm 7.1 4.2 4.8 85 1.0 NNW 9 15 5 8 - - 0.0
21/05:00pm 7.4 5.5 4.9 84 1.1 N 4 9 2 5 - - 0.0

Other Formats:

Comma delimited format used in spreadsheet applications
http://www.bom.gov.au/fwo/IDT60801/IDT60801.95962.axf

JavaScript Object Notation format (JSON) in row-major order
http://www.bom.gov.au/fwo/IDT60801/IDT60801.95962.json